Alida, Canada
Current Conditions -  °F | °C
As of 3:00 PM on Wednesday 17 Dec 2014 (Local Time) from CYEN Reporting Station
Light Snow Light Snow  
Wind Chill:   Ceiling: 1500
Heat Index: 19°   Visibility: 15mi
Dew Point: 12°   Wind: 13mph
Humidity: 74%   Direction: 170°S
Pressure: 30.12"   Gusts: NA
Location:  49.38°N, 101.87°W
Report Text: CYEN 172100Z 17011KT 15SM -SN BKN015 M07/M11 A3012 RMK SC6SLP240
Loading
Personal Weather Stations






























Interactive Weather Map New forecast layout! Learn more

10-Day Weather Forecast

Advertisements
Track Severe Weather on mobile